createdAt,value
2023-03-03T00:03:14.976Z,31.60
2023-03-03T00:08:37.232Z,34.43
2023-03-03T00:13:59.074Z,33.92
2023-03-03T00:19:21.558Z,32.90
2023-03-03T00:24:43.447Z,33.00
2023-03-03T00:30:20.095Z,33.00
2023-03-03T00:35:43.335Z,33.03
2023-03-03T00:41:16.680Z,33.13
2023-03-03T00:46:38.559Z,31.80
2023-03-03T00:52:00.421Z,30.27
2023-03-03T00:57:22.275Z,32.25
2023-03-03T01:02:44.125Z,29.55
2023-03-03T01:08:06.616Z,29.05
2023-03-03T01:13:32.755Z,27.40
2023-03-03T01:18:54.591Z,29.08
2023-03-03T01:24:16.485Z,30.35
2023-03-03T01:29:38.327Z,29.40
2023-03-03T01:35:00.316Z,29.50
2023-03-03T01:40:25.439Z,32.70
2023-03-03T01:45:47.265Z,32.85
2023-03-03T01:51:38.632Z,31.70
2023-03-03T01:57:05.441Z,31.70
2023-03-03T02:02:28.750Z,32.83
2023-03-03T02:07:51.501Z,34.13
2023-03-03T02:13:13.404Z,33.15
2023-03-03T02:18:35.486Z,35.58
2023-03-03T02:24:16.277Z,32.83
2023-03-03T02:29:38.207Z,34.80
2023-03-03T02:35:00.112Z,35.92
2023-03-03T02:40:26.530Z,33.15
2023-03-03T02:51:10.808Z,32.67
2023-03-03T02:56:32.964Z,35.13
2023-03-03T03:01:55.595Z,33.85
2023-03-03T03:07:17.454Z,34.85
2023-03-03T03:12:39.471Z,35.35
2023-03-03T03:18:01.307Z,36.03
2023-03-03T03:23:23.184Z,35.22
2023-03-03T03:28:45.087Z,36.17
2023-03-03T03:34:06.984Z,34.80
2023-03-03T03:39:28.984Z,34.72
2023-03-03T03:44:50.850Z,35.10
2023-03-03T03:50:13.303Z,35.20
2023-03-03T03:55:35.199Z,34.03
2023-03-03T04:01:06.522Z,36.00
2023-03-03T04:06:28.531Z,33.97
2023-03-03T04:11:50.396Z,34.75
2023-03-03T04:17:20.144Z,33.95
2023-03-03T04:22:43.012Z,34.75
2023-03-03T04:28:05.725Z,36.28
2023-03-03T04:33:27.752Z,38.25
2023-03-03T04:38:50.455Z,34.67
2023-03-03T04:44:12.311Z,36.72
2023-03-03T04:49:34.152Z,36.30
2023-03-03T04:54:55.990Z,36.72
2023-03-03T05:00:18.347Z,35.35
2023-03-03T05:05:41.194Z,35.15
2023-03-03T05:11:04.135Z,35.88
2023-03-03T05:16:26.190Z,35.58
2023-03-03T05:21:48.116Z,35.70
2023-03-03T05:27:09.990Z,36.28
2023-03-03T05:32:32.546Z,36.63
2023-03-03T05:37:54.852Z,35.22
2023-03-03T05:43:16.928Z,36.58
2023-03-03T05:48:38.886Z,36.35
2023-03-03T05:54:00.747Z,36.65
2023-03-03T05:59:23.223Z,37.45
2023-03-03T06:04:45.081Z,39.70
2023-03-03T06:10:07.997Z,39.88
2023-03-03T06:15:30.171Z,38.25
2023-03-03T06:20:55.325Z,37.10
2023-03-03T06:26:17.190Z,39.83
2023-03-03T06:31:39.112Z,40.53
2023-03-03T06:37:01.012Z,42.65
2023-03-03T06:42:22.934Z,44.95
2023-03-03T06:47:44.848Z,45.17
2023-03-03T06:53:15.365Z,43.63
2023-03-03T06:58:37.181Z,43.55
2023-03-03T07:03:59.207Z,42.53
2023-03-03T07:09:27.025Z,41.25
2023-03-03T07:15:15.277Z,39.80
2023-03-03T07:20:39.358Z,37.28
2023-03-03T07:26:01.192Z,33.17
2023-03-03T07:31:25.810Z,33.60
2023-03-03T07:36:50.315Z,31.42
2023-03-03T07:42:25.660Z,29.77
2023-03-03T07:47:48.110Z,24.20
2023-03-03T07:53:21.892Z,29.35
2023-03-03T07:58:44.401Z,29.33
2023-03-03T08:04:39.327Z,30.48
2023-03-03T08:10:02.632Z,29.02
2023-03-03T08:15:28.379Z,30.38
2023-03-03T08:20:53.028Z,29.83
2023-03-03T08:26:14.968Z,29.58
2023-03-03T08:31:41.658Z,29.63
2023-03-03T08:37:03.875Z,27.75
2023-03-03T08:42:25.765Z,29.83
2023-03-03T08:47:47.734Z,27.58
2023-03-03T08:53:10.808Z,28.13
2023-03-03T08:58:35.679Z,28.05
2023-03-03T09:03:57.939Z,29.20
2023-03-03T09:09:19.855Z,28.52
2023-03-03T09:14:41.688Z,27.63
2023-03-03T09:20:25.013Z,26.77
2023-03-03T09:25:47.039Z,26.27
2023-03-03T09:31:25.401Z,24.98
2023-03-03T09:36:47.390Z,25.83
2023-03-03T09:42:27.974Z,26.88
2023-03-03T09:47:49.744Z,23.58
2023-03-03T09:53:39.576Z,24.35
2023-03-03T09:59:39.131Z,27.27
2023-03-03T10:05:14.552Z,22.90
2023-03-03T10:10:53.532Z,25.00
2023-03-03T10:16:52.573Z,22.85
2023-03-03T10:22:20.786Z,23.98
2023-03-03T10:27:55.605Z,24.70
2023-03-03T10:33:28.339Z,24.90
2023-03-03T10:39:16.227Z,24.65
2023-03-03T10:44:44.262Z,23.02
2023-03-03T10:50:24.933Z,24.45
2023-03-03T10:55:59.851Z,21.75
2023-03-03T11:01:40.430Z,21.23
2023-03-03T11:07:36.977Z,21.63
2023-03-03T11:13:16.471Z,22.15
2023-03-03T11:19:05.212Z,20.98
2023-03-03T11:24:31.218Z,20.55
2023-03-03T11:30:06.613Z,22.52
2023-03-03T11:35:56.053Z,22.30
2023-03-03T11:41:39.552Z,23.70
2023-03-03T11:47:06.812Z,24.90
2023-03-03T11:52:55.812Z,24.23
2023-03-03T11:58:24.964Z,24.42
2023-03-03T12:04:03.050Z,24.80
2023-03-03T12:09:33.760Z,24.17
2023-03-03T12:15:07.898Z,25.65
2023-03-03T12:20:32.801Z,24.58
2023-03-03T12:26:03.749Z,26.13
2023-03-03T12:31:44.598Z,25.85
2023-03-03T12:37:12.847Z,24.58
2023-03-03T12:43:00.716Z,25.50
2023-03-03T12:48:40.556Z,26.48
2023-03-03T12:54:29.912Z,24.35
2023-03-03T13:00:10.016Z,23.05
2023-03-03T13:05:50.670Z,21.70
2023-03-03T13:11:18.742Z,23.58
2023-03-03T13:16:49.517Z,23.02
2023-03-03T13:22:27.870Z,22.33
2023-03-03T13:27:54.375Z,21.20
2023-03-03T13:38:56.386Z,21.35
2023-03-03T13:44:24.828Z,21.75
2023-03-03T13:50:13.979Z,21.30
2023-03-03T13:55:44.095Z,22.38
2023-03-03T14:01:29.179Z,21.30
2023-03-03T14:07:03.247Z,21.50
2023-03-03T14:12:49.022Z,22.98
2023-03-03T14:18:18.931Z,21.38
2023-03-03T14:23:58.879Z,20.83
2023-03-03T14:29:26.808Z,21.88
2023-03-03T14:35:01.625Z,21.25
2023-03-03T14:40:31.709Z,21.48
2023-03-03T14:45:54.517Z,19.00
2023-03-03T14:51:40.629Z,20.20
2023-03-03T14:57:19.203Z,18.85
2023-03-03T15:02:43.528Z,19.48
2023-03-03T15:08:05.649Z,17.42
2023-03-03T15:13:35.145Z,18.45
2023-03-03T15:19:09.110Z,17.48
2023-03-03T15:24:49.385Z,18.70
2023-03-03T15:30:33.306Z,17.20
2023-03-03T15:36:02.642Z,16.88
2023-03-03T15:41:40.874Z,17.20
2023-03-03T15:47:43.906Z,15.13
2023-03-03T15:53:29.261Z,13.85
2023-03-03T15:59:15.679Z,13.47
2023-03-03T16:04:43.357Z,13.82
2023-03-03T16:10:34.620Z,13.77
2023-03-03T16:16:13.522Z,13.85
2023-03-03T16:22:16.477Z,14.13
2023-03-03T16:28:00.952Z,14.75
2023-03-03T16:33:41.472Z,16.88
2023-03-03T16:39:37.713Z,15.02
2023-03-03T16:45:23.818Z,16.30
2023-03-03T16:56:43.286Z,17.00
2023-03-03T17:02:05.097Z,18.23
2023-03-03T17:08:12.138Z,18.23
2023-03-03T17:14:03.339Z,21.13
2023-03-03T17:19:30.338Z,19.27
2023-03-03T17:25:03.023Z,19.30
2023-03-03T17:30:34.165Z,19.52
2023-03-03T17:36:13.568Z,17.38
2023-03-03T17:48:31.095Z,18.02
2023-03-03T17:54:11.482Z,17.42
2023-03-03T17:59:45.412Z,17.17
2023-03-03T18:05:44.922Z,18.27
2023-03-03T18:11:57.205Z,17.70
2023-03-03T18:17:41.900Z,19.48
2023-03-03T18:23:24.024Z,18.58
2023-03-03T18:28:49.255Z,19.42
2023-03-03T18:34:20.103Z,18.00
2023-03-03T18:40:01.864Z,19.45
2023-03-03T18:45:23.649Z,20.10
2023-03-03T18:50:50.541Z,19.40
2023-03-03T18:56:12.490Z,21.15
2023-03-03T19:01:44.472Z,19.50
2023-03-03T19:07:17.358Z,20.10
2023-03-03T19:12:41.976Z,20.33
2023-03-03T19:18:26.930Z,19.63
2023-03-03T19:23:53.329Z,19.05
2023-03-03T19:35:13.769Z,20.75
2023-03-03T19:41:00.992Z,20.88
2023-03-03T19:46:41.448Z,21.02
2023-03-03T19:52:24.348Z,20.02
2023-03-03T19:58:16.414Z,20.35
2023-03-03T20:04:10.932Z,20.08
2023-03-03T20:09:58.963Z,20.17
2023-03-03T20:15:28.450Z,19.88
2023-03-03T20:21:10.023Z,21.33
2023-03-03T20:26:48.942Z,18.90
2023-03-03T20:32:22.846Z,19.23
2023-03-03T20:38:09.537Z,20.17
2023-03-03T20:44:02.396Z,20.63
2023-03-03T20:49:59.125Z,22.02
2023-03-03T20:55:39.286Z,22.33
2023-03-03T21:01:12.850Z,21.92
2023-03-03T21:06:38.881Z,23.00
2023-03-03T21:12:04.656Z,24.08
2023-03-03T21:17:29.577Z,24.95
2023-03-03T21:22:51.734Z,23.83
2023-03-03T21:28:19.576Z,23.83
2023-03-03T21:33:57.337Z,23.17
2023-03-03T21:39:30.040Z,22.67
2023-03-03T21:44:51.916Z,21.80
2023-03-03T21:50:14.258Z,21.40
2023-03-03T21:55:36.141Z,22.85
2023-03-03T22:00:58.041Z,21.95
2023-03-03T22:06:19.939Z,24.27
2023-03-03T22:11:41.853Z,24.20
2023-03-03T22:17:03.870Z,24.00
2023-03-03T22:22:25.751Z,24.35
2023-03-03T22:27:47.851Z,22.75
2023-03-03T22:33:09.699Z,23.17
2023-03-03T22:38:31.603Z,25.17
2023-03-03T22:43:53.464Z,25.17
2023-03-03T22:49:15.354Z,24.52
2023-03-03T22:54:37.186Z,27.73
2023-03-03T22:59:59.095Z,24.80
2023-03-03T23:05:21.068Z,22.75
2023-03-03T23:10:43.088Z,22.67
2023-03-03T23:16:05.551Z,21.75
2023-03-03T23:21:27.442Z,22.63
2023-03-03T23:26:49.332Z,20.77
2023-03-03T23:32:11.234Z,20.65
2023-03-03T23:37:33.308Z,20.98
2023-03-03T23:42:55.255Z,20.48
2023-03-03T23:48:17.143Z,20.83
2023-03-03T23:53:39.056Z,20.02
2023-03-03T23:59:00.927Z,17.80
